createdAt,value
2023-01-29T00:01:58.492Z,-0.91
2023-01-29T00:04:25.849Z,-0.93
2023-01-29T00:06:53.034Z,-0.98
2023-01-29T00:09:20.259Z,-0.97
2023-01-29T00:11:47.713Z,-1.08
2023-01-29T00:14:14.879Z,-1.01
2023-01-29T00:16:42.281Z,-1.07
2023-01-29T00:19:09.436Z,-1.04
2023-01-29T00:21:36.525Z,-1.06
2023-01-29T00:24:03.758Z,-1.06
2023-01-29T00:26:31.317Z,-1.08
2023-01-29T00:29:00.719Z,-1.08
2023-01-29T00:31:28.365Z,-1.13
2023-01-29T00:33:55.604Z,-1.23
2023-01-29T00:36:23.421Z,-1.18
2023-01-29T00:38:59.901Z,-1.22
2023-01-29T00:41:48.545Z,-1.22
2023-01-29T00:44:34.866Z,-1.27
2023-01-29T00:47:02.601Z,-1.22
2023-01-29T00:49:30.630Z,-1.20
2023-01-29T00:52:17.493Z,-1.24
2023-01-29T00:54:44.553Z,-1.28
2023-01-29T00:57:11.663Z,-1.23
2023-01-29T00:59:38.966Z,-1.24
2023-01-29T01:02:24.503Z,-1.23
2023-01-29T01:04:51.691Z,-1.45
2023-01-29T01:07:18.767Z,-1.31
2023-01-29T01:10:04.384Z,-1.29
2023-01-29T01:12:32.289Z,-1.27
2023-01-29T01:14:59.348Z,-1.28
2023-01-29T01:17:26.602Z,-1.24
2023-01-29T01:19:53.998Z,-1.18
2023-01-29T01:22:21.114Z,-1.17
2023-01-29T01:24:48.588Z,-1.14
2023-01-29T01:27:15.804Z,-1.11
2023-01-29T01:29:43.046Z,-1.13
2023-01-29T01:32:10.205Z,-1.11
2023-01-29T01:34:37.555Z,-1.10
2023-01-29T01:37:05.004Z,-1.06
2023-01-29T01:39:32.126Z,-1.05
2023-01-29T01:41:59.286Z,-1.08
2023-01-29T01:44:52.801Z,-1.03
2023-01-29T01:47:25.322Z,-1.03
2023-01-29T01:49:54.856Z,-1.05
2023-01-29T01:52:22.278Z,-1.04
2023-01-29T01:54:51.508Z,-1.05
2023-01-29T01:57:25.349Z,-1.03
2023-01-29T01:59:58.864Z,-1.01
2023-01-29T02:02:45.193Z,-1.00
2023-01-29T02:05:32.263Z,-1.01
2023-01-29T02:08:18.659Z,-1.05
2023-01-29T02:10:48.715Z,-1.01
2023-01-29T02:13:18.101Z,-1.01
2023-01-29T02:15:51.503Z,-1.00
2023-01-29T02:18:21.694Z,-1.00
2023-01-29T02:21:15.094Z,-1.01
2023-01-29T02:24:01.836Z,-0.99
2023-01-29T02:26:52.215Z,-0.99
2023-01-29T02:29:25.602Z,-0.98
2023-01-29T02:32:02.492Z,-0.98
2023-01-29T02:35:16.612Z,-0.99
2023-01-29T02:37:55.572Z,-1.07
2023-01-29T02:40:27.509Z,-1.04
2023-01-29T02:43:05.134Z,-1.02
2023-01-29T02:45:57.486Z,-1.06
2023-01-29T02:48:28.345Z,-1.05
2023-01-29T02:51:04.662Z,-1.01
2023-01-29T02:53:42.459Z,-1.03
2023-01-29T02:56:18.004Z,-1.04
2023-01-29T02:58:52.143Z,-1.03
2023-01-29T03:01:40.139Z,-1.00
2023-01-29T03:04:17.126Z,-1.05
2023-01-29T03:07:03.575Z,-1.02
2023-01-29T03:09:37.036Z,-1.24
2023-01-29T03:12:20.179Z,-1.01
2023-01-29T03:15:09.302Z,-1.02
2023-01-29T03:17:42.337Z,-1.03
2023-01-29T03:20:16.561Z,-1.05
2023-01-29T03:22:50.754Z,-1.03
2023-01-29T03:25:39.445Z,-1.04
2023-01-29T03:28:28.479Z,-1.04
2023-01-29T03:31:18.939Z,-1.10
2023-01-29T03:34:16.711Z,-1.06
2023-01-29T03:37:04.122Z,-1.14
2023-01-29T03:39:31.492Z,-1.13
2023-01-29T03:42:05.136Z,-1.12
2023-01-29T03:45:00.641Z,-1.11
2023-01-29T03:47:37.961Z,-1.10
2023-01-29T03:50:23.454Z,-1.08
2023-01-29T03:53:15.513Z,-1.08
2023-01-29T03:56:07.472Z,-1.07
2023-01-29T03:58:37.890Z,-1.06
2023-01-29T04:01:33.855Z,-1.06
2023-01-29T04:04:14.195Z,-1.02
2023-01-29T04:06:46.735Z,-1.03
2023-01-29T04:09:29.507Z,-1.00
2023-01-29T04:12:26.530Z,-1.07
2023-01-29T04:14:57.294Z,-1.07
2023-01-29T04:17:34.971Z,-1.09
2023-01-29T04:20:19.131Z,-1.02
2023-01-29T04:22:49.181Z,-1.00
2023-01-29T04:25:26.785Z,-0.98
2023-01-29T04:27:58.280Z,-0.97
2023-01-29T04:30:47.116Z,-0.94
2023-01-29T04:33:32.334Z,-0.94
2023-01-29T04:36:25.936Z,-1.00
2023-01-29T04:39:26.705Z,-1.07
2023-01-29T04:42:00.139Z,-1.06
2023-01-29T04:44:50.531Z,-1.04
2023-01-29T04:47:27.281Z,-1.04
2023-01-29T04:50:14.915Z,-1.05
2023-01-29T04:52:54.533Z,-1.01
2023-01-29T04:55:43.883Z,-1.01
2023-01-29T04:58:30.137Z,-0.98
2023-01-29T05:00:59.103Z,-1.01
2023-01-29T05:03:27.749Z,-0.96
2023-01-29T05:05:57.555Z,-1.02
2023-01-29T05:08:27.517Z,-0.98
2023-01-29T05:10:55.850Z,-1.01
2023-01-29T05:13:24.339Z,-1.00
2023-01-29T05:16:03.135Z,-0.99
2023-01-29T05:18:31.269Z,-1.00
2023-01-29T05:21:04.331Z,-0.98
2023-01-29T05:23:31.645Z,-0.98
2023-01-29T05:25:58.736Z,-0.99
2023-01-29T05:28:25.919Z,-1.00
2023-01-29T05:30:57.482Z,-1.00
2023-01-29T05:33:28.538Z,-0.99
2023-01-29T05:35:57.047Z,-1.00
2023-01-29T05:38:24.638Z,-0.98
2023-01-29T05:40:51.907Z,-1.01
2023-01-29T05:43:24.209Z,-1.00
2023-01-29T05:45:55.244Z,-0.98
2023-01-29T05:48:22.640Z,-0.97
2023-01-29T05:50:50.047Z,-0.99
2023-01-29T05:53:17.145Z,-0.96
2023-01-29T05:55:45.810Z,-1.19
2023-01-29T05:58:13.306Z,-1.01
2023-01-29T06:00:41.016Z,-1.00
2023-01-29T06:03:08.413Z,-1.01
2023-01-29T06:05:38.548Z,-1.02
2023-01-29T06:08:05.876Z,-1.05
2023-01-29T06:10:32.961Z,-1.05
2023-01-29T06:13:00.114Z,-1.11
2023-01-29T06:15:27.698Z,-1.08
2023-01-29T06:17:55.619Z,-1.11
2023-01-29T06:20:23.609Z,-1.05
2023-01-29T06:22:50.734Z,-1.07
2023-01-29T06:25:17.956Z,-1.05
2023-01-29T06:27:45.059Z,-1.04
2023-01-29T06:30:12.748Z,-1.00
2023-01-29T06:32:39.852Z,-1.02
2023-01-29T06:35:07.892Z,-1.03
2023-01-29T06:37:34.952Z,-0.99
2023-01-29T06:40:02.202Z,-1.01
2023-01-29T06:42:29.501Z,-0.98
2023-01-29T06:44:57.053Z,-0.97
2023-01-29T06:47:24.903Z,-0.95
2023-01-29T06:49:52.535Z,-0.99
2023-01-29T06:52:19.689Z,-0.92
2023-01-29T06:54:46.811Z,-0.94
2023-01-29T06:57:13.980Z,-0.92
2023-01-29T06:59:41.128Z,-0.91
2023-01-29T07:02:09.807Z,-0.90
2023-01-29T07:04:37.978Z,-0.88
2023-01-29T07:07:05.605Z,-0.92
2023-01-29T07:09:32.788Z,-0.84
2023-01-29T07:12:00.670Z,-0.83
2023-01-29T07:14:27.701Z,-0.79
2023-01-29T07:16:54.764Z,-0.76
2023-01-29T07:19:22.030Z,-0.77
2023-01-29T07:21:49.112Z,-0.77
2023-01-29T07:24:19.642Z,-0.81
2023-01-29T07:26:46.859Z,-0.73
2023-01-29T07:29:13.933Z,-0.71
2023-01-29T07:31:41.059Z,-0.69
2023-01-29T07:34:08.265Z,-0.66
2023-01-29T07:36:37.346Z,-0.65
2023-01-29T07:39:04.519Z,-0.67
2023-01-29T07:41:31.550Z,-0.60
2023-01-29T07:44:00.129Z,-0.59
2023-01-29T07:46:27.348Z,-0.54
2023-01-29T07:48:54.455Z,-0.54
2023-01-29T07:51:21.724Z,-0.55
2023-01-29T07:53:49.024Z,-0.52
2023-01-29T07:56:16.224Z,-0.54
2023-01-29T07:58:43.278Z,-0.56
2023-01-29T08:01:10.520Z,-0.59
2023-01-29T08:03:37.760Z,-0.58
2023-01-29T08:06:05.148Z,-0.55
2023-01-29T08:08:32.269Z,-0.52
2023-01-29T08:11:01.947Z,-0.53
2023-01-29T08:13:29.032Z,-0.48
2023-01-29T08:16:03.502Z,-0.48
2023-01-29T08:18:31.754Z,-0.45
2023-01-29T08:21:02.662Z,-0.37
2023-01-29T08:23:30.731Z,-0.32
2023-01-29T08:25:57.970Z,-0.28
2023-01-29T08:28:25.203Z,-0.27
2023-01-29T08:30:52.384Z,-0.25
2023-01-29T08:33:23.769Z,-0.17
2023-01-29T08:35:53.747Z,-0.15
2023-01-29T08:38:21.300Z,-0.15
2023-01-29T08:40:48.413Z,-0.13
2023-01-29T08:43:16.356Z,-0.11
2023-01-29T08:45:44.540Z,-0.16
2023-01-29T08:48:12.061Z,-0.14
2023-01-29T08:50:39.193Z,-0.17
2023-01-29T08:53:08.374Z,-0.11
2023-01-29T08:55:46.483Z,-0.12
2023-01-29T08:58:13.466Z,-0.11
2023-01-29T09:00:40.512Z,-0.12
2023-01-29T09:03:08.176Z,-0.08
2023-01-29T09:05:37.256Z,-0.09
2023-01-29T09:08:05.831Z,-0.05
2023-01-29T09:10:33.069Z,-0.05
2023-01-29T09:13:00.274Z,-0.04
2023-01-29T09:15:27.644Z,-0.02
2023-01-29T09:17:54.714Z,-0.01
2023-01-29T09:20:22.246Z,0.02
2023-01-29T09:22:50.844Z,-0.01
2023-01-29T09:25:18.343Z,-0.07
2023-01-29T09:27:45.561Z,0.01
2023-01-29T09:30:13.038Z,0.06
2023-01-29T09:32:55.509Z,0.04
2023-01-29T09:35:23.889Z,0.05
2023-01-29T09:37:52.374Z,0.09
2023-01-29T09:40:45.153Z,0.08
2023-01-29T09:43:53.376Z,0.12
2023-01-29T09:46:25.738Z,0.15
2023-01-29T09:49:02.158Z,0.14
2023-01-29T09:51:35.735Z,0.13
2023-01-29T09:54:12.097Z,0.13
2023-01-29T09:56:39.376Z,0.14
2023-01-29T09:59:06.486Z,0.16
2023-01-29T10:01:45.687Z,0.16
2023-01-29T10:04:27.270Z,0.18
2023-01-29T10:07:03.042Z,0.18
2023-01-29T10:10:01.107Z,0.23
2023-01-29T10:12:46.437Z,0.24
2023-01-29T10:15:43.839Z,0.23
2023-01-29T10:18:43.245Z,0.19
2023-01-29T10:21:25.172Z,0.26
2023-01-29T10:24:02.387Z,0.28
2023-01-29T10:26:31.574Z,0.23
2023-01-29T10:29:00.722Z,0.26
2023-01-29T10:31:33.425Z,0.30
2023-01-29T10:34:07.715Z,0.31
2023-01-29T10:36:43.174Z,0.26
2023-01-29T10:39:16.548Z,0.22
2023-01-29T10:42:22.174Z,0.30
2023-01-29T10:45:10.343Z,0.26
2023-01-29T10:48:00.119Z,0.26
2023-01-29T10:50:57.856Z,0.29
2023-01-29T10:53:33.997Z,0.28
2023-01-29T10:56:22.758Z,0.26
2023-01-29T10:59:24.983Z,0.24
2023-01-29T11:01:52.177Z,0.30
2023-01-29T11:04:19.674Z,0.27
2023-01-29T11:06:46.982Z,0.33
2023-01-29T11:09:39.369Z,0.13
2023-01-29T11:12:11.098Z,0.29
2023-01-29T11:14:44.378Z,0.32
2023-01-29T11:17:23.563Z,0.29
2023-01-29T11:19:52.311Z,0.27
2023-01-29T11:22:27.364Z,0.32
2023-01-29T11:25:18.185Z,0.32
2023-01-29T11:27:49.553Z,0.36
2023-01-29T11:30:29.204Z,0.31
2023-01-29T11:33:06.804Z,0.38
2023-01-29T11:35:35.673Z,0.35
2023-01-29T11:38:23.895Z,0.36
2023-01-29T11:40:51.821Z,0.31
2023-01-29T11:43:27.916Z,0.37
2023-01-29T11:46:07.445Z,0.35
2023-01-29T11:48:58.954Z,0.37
2023-01-29T11:51:30.237Z,0.44
2023-01-29T11:54:00.709Z,0.48
2023-01-29T11:56:32.990Z,0.47
2023-01-29T11:59:04.666Z,0.48
2023-01-29T12:01:41.415Z,0.50
2023-01-29T12:04:39.393Z,0.50
2023-01-29T12:07:14.473Z,0.52
2023-01-29T12:09:42.017Z,0.56
2023-01-29T12:12:40.170Z,0.59
2023-01-29T12:15:20.025Z,0.55
2023-01-29T12:17:58.436Z,0.36
2023-01-29T12:20:36.198Z,0.50
2023-01-29T12:23:26.404Z,0.47
2023-01-29T12:26:19.608Z,0.44
2023-01-29T12:29:13.072Z,0.41
2023-01-29T12:31:48.996Z,0.39
2023-01-29T12:34:42.326Z,0.42
2023-01-29T12:37:25.297Z,0.39
2023-01-29T12:39:52.740Z,0.39
2023-01-29T12:42:22.781Z,0.42
2023-01-29T12:45:01.350Z,0.38
2023-01-29T12:47:44.076Z,0.40
2023-01-29T12:50:33.319Z,0.41
2023-01-29T12:53:25.461Z,0.38
2023-01-29T12:56:03.130Z,0.38
2023-01-29T12:58:44.361Z,0.40
2023-01-29T13:01:27.780Z,0.40
2023-01-29T13:04:07.086Z,0.41
2023-01-29T13:06:41.824Z,0.31
2023-01-29T13:09:19.771Z,0.38
2023-01-29T13:12:00.834Z,0.35
2023-01-29T13:14:51.515Z,0.38
2023-01-29T13:17:24.553Z,0.38
2023-01-29T13:19:54.502Z,0.39
2023-01-29T13:22:35.411Z,0.44
2023-01-29T13:25:05.427Z,0.43
2023-01-29T13:27:35.303Z,0.42
2023-01-29T13:30:03.051Z,0.42
2023-01-29T13:32:32.935Z,0.41
2023-01-29T13:35:15.441Z,0.44
2023-01-29T13:37:49.328Z,0.37
2023-01-29T13:40:29.299Z,0.44
2023-01-29T13:42:59.937Z,0.45
2023-01-29T13:45:35.406Z,0.46
2023-01-29T13:48:27.170Z,0.46
2023-01-29T13:50:57.222Z,0.48
2023-01-29T13:53:38.373Z,0.49
2023-01-29T13:56:33.539Z,0.50
2023-01-29T13:59:03.114Z,0.49
2023-01-29T14:01:48.394Z,0.46
2023-01-29T14:04:25.788Z,0.47
2023-01-29T14:06:54.974Z,0.46
2023-01-29T14:09:37.284Z,0.46
2023-01-29T14:12:25.136Z,0.45
2023-01-29T14:15:04.511Z,0.40
2023-01-29T14:17:32.114Z,0.38
2023-01-29T14:20:17.396Z,0.40
2023-01-29T14:22:44.747Z,0.43
2023-01-29T14:25:19.946Z,0.40
2023-01-29T14:27:48.831Z,0.37
2023-01-29T14:30:19.045Z,0.40
2023-01-29T14:32:50.055Z,0.41
2023-01-29T14:35:25.765Z,0.37
2023-01-29T14:37:59.676Z,0.42
2023-01-29T14:40:29.975Z,0.44
2023-01-29T14:43:02.508Z,0.47
2023-01-29T14:45:42.081Z,0.43
2023-01-29T14:48:12.005Z,0.44
2023-01-29T14:50:51.501Z,0.39
2023-01-29T14:53:31.877Z,0.38
2023-01-29T14:56:10.660Z,0.41
2023-01-29T14:58:43.966Z,0.38
2023-01-29T15:01:26.045Z,0.32
2023-01-29T15:04:00.595Z,0.34
2023-01-29T15:07:09.267Z,0.34
2023-01-29T15:09:55.646Z,0.33
2023-01-29T15:12:33.516Z,0.32
2023-01-29T15:15:08.301Z,0.33
2023-01-29T15:17:48.251Z,0.30
2023-01-29T15:20:42.160Z,0.32
2023-01-29T15:23:32.383Z,0.31
2023-01-29T15:26:01.876Z,0.31
2023-01-29T15:28:33.320Z,0.34
2023-01-29T15:31:08.031Z,0.33
2023-01-29T15:33:38.761Z,0.37
2023-01-29T15:36:08.050Z,0.38
2023-01-29T15:38:35.854Z,0.36
2023-01-29T15:41:16.374Z,0.36
2023-01-29T15:43:46.336Z,0.36
2023-01-29T15:46:23.293Z,0.37
2023-01-29T15:48:51.812Z,0.39
2023-01-29T15:51:25.500Z,0.39
2023-01-29T15:53:58.673Z,0.39
2023-01-29T15:56:33.725Z,0.40
2023-01-29T15:59:07.318Z,0.39
2023-01-29T16:01:36.472Z,0.28
2023-01-29T16:04:04.490Z,0.38
2023-01-29T16:06:38.105Z,0.34
2023-01-29T16:09:06.420Z,0.37
2023-01-29T16:11:35.890Z,0.34
2023-01-29T16:14:05.084Z,0.40
2023-01-29T16:16:32.576Z,0.37
2023-01-29T16:19:01.268Z,0.39
2023-01-29T16:21:49.026Z,0.39
2023-01-29T16:24:23.481Z,0.40
2023-01-29T16:26:51.905Z,0.38
2023-01-29T16:29:24.910Z,0.37
2023-01-29T16:31:55.186Z,0.36
2023-01-29T16:34:31.066Z,0.36
2023-01-29T16:36:59.130Z,0.37
2023-01-29T16:39:34.023Z,0.40
2023-01-29T16:42:21.134Z,0.36
2023-01-29T16:44:54.652Z,0.38
2023-01-29T16:47:33.200Z,0.38
2023-01-29T16:50:02.393Z,0.37
2023-01-29T16:52:34.500Z,0.37
2023-01-29T16:55:16.732Z,0.40
2023-01-29T16:57:47.093Z,0.14
2023-01-29T17:00:19.179Z,0.37
2023-01-29T17:02:46.304Z,0.39
2023-01-29T17:05:31.674Z,0.36
2023-01-29T17:08:00.433Z,0.35
2023-01-29T17:10:29.373Z,0.37
2023-01-29T17:12:58.213Z,0.37
2023-01-29T17:15:48.654Z,0.39
2023-01-29T17:18:21.627Z,0.42
2023-01-29T17:20:49.488Z,0.19
2023-01-29T17:23:16.950Z,0.38
2023-01-29T17:25:44.775Z,0.43
2023-01-29T17:28:14.318Z,0.43
2023-01-29T17:30:41.624Z,0.44
2023-01-29T17:33:14.951Z,0.46
2023-01-29T17:35:43.484Z,0.47
2023-01-29T17:38:25.546Z,0.46
2023-01-29T17:41:08.465Z,0.42
2023-01-29T17:43:35.616Z,0.40
2023-01-29T17:46:03.262Z,0.49
2023-01-29T17:48:31.430Z,0.47
2023-01-29T17:51:04.801Z,0.49
2023-01-29T17:53:44.899Z,0.48
2023-01-29T17:56:18.589Z,0.43
2023-01-29T17:58:45.776Z,0.52
2023-01-29T18:01:13.966Z,0.49
2023-01-29T18:03:41.130Z,0.54
2023-01-29T18:06:10.093Z,0.52
2023-01-29T18:08:39.416Z,0.51
2023-01-29T18:11:06.534Z,0.55
2023-01-29T18:13:36.333Z,0.54
2023-01-29T18:16:03.815Z,0.58
2023-01-29T18:18:30.966Z,0.58
2023-01-29T18:20:58.147Z,0.59
2023-01-29T18:23:25.296Z,0.52
2023-01-29T18:25:53.022Z,0.59
2023-01-29T18:28:20.239Z,0.57
2023-01-29T18:30:47.780Z,0.52
2023-01-29T18:33:16.660Z,0.54
2023-01-29T18:35:45.446Z,0.56
2023-01-29T18:38:12.640Z,0.53
2023-01-29T18:40:39.979Z,0.56
2023-01-29T18:43:10.342Z,0.52
2023-01-29T18:45:37.466Z,0.58
2023-01-29T18:48:05.378Z,0.58
2023-01-29T18:50:33.163Z,0.54
2023-01-29T18:53:00.847Z,0.57
2023-01-29T18:55:27.972Z,0.54
2023-01-29T18:58:27.339Z,0.50
2023-01-29T19:00:43.205Z,0.52
2023-01-29T19:03:11.432Z,0.50
2023-01-29T19:05:38.576Z,0.51
2023-01-29T19:08:06.167Z,0.54
2023-01-29T19:10:34.601Z,0.52
2023-01-29T19:13:01.931Z,0.52
2023-01-29T19:15:29.036Z,0.57
2023-01-29T19:17:56.637Z,0.58
2023-01-29T19:20:23.802Z,0.57
2023-01-29T19:22:53.653Z,0.53
2023-01-29T19:25:21.146Z,0.55
2023-01-29T19:27:48.478Z,0.55
2023-01-29T19:30:15.885Z,0.58
2023-01-29T19:32:43.299Z,0.57
2023-01-29T19:35:12.670Z,0.44
2023-01-29T19:37:39.858Z,0.52
2023-01-29T19:40:08.427Z,0.49
2023-01-29T19:42:37.620Z,0.52
2023-01-29T19:45:05.830Z,0.52
2023-01-29T19:47:33.922Z,0.50
2023-01-29T19:50:01.164Z,0.52
2023-01-29T19:52:51.523Z,0.52
2023-01-29T19:55:20.908Z,0.52
2023-01-29T19:57:49.143Z,0.51
2023-01-29T20:00:17.700Z,0.52
2023-01-29T20:02:44.867Z,0.48
2023-01-29T20:05:13.234Z,0.51
2023-01-29T20:07:43.080Z,0.53
2023-01-29T20:10:11.700Z,0.54
2023-01-29T20:12:38.885Z,0.56
2023-01-29T20:15:07.542Z,0.55
2023-01-29T20:17:34.675Z,0.50
2023-01-29T20:20:02.536Z,0.32
2023-01-29T20:22:30.037Z,0.50
2023-01-29T20:24:57.542Z,0.49
2023-01-29T20:27:27.520Z,0.46
2023-01-29T20:29:54.521Z,0.33
2023-01-29T20:32:21.704Z,0.49
2023-01-29T20:34:52.251Z,0.52
2023-01-29T20:37:19.841Z,0.48
2023-01-29T20:39:47.583Z,0.52
2023-01-29T20:42:14.780Z,0.49
2023-01-29T20:44:42.329Z,0.52
2023-01-29T20:47:09.538Z,0.51
2023-01-29T20:49:38.802Z,0.49
2023-01-29T20:52:07.814Z,0.51
2023-01-29T20:54:35.133Z,0.44
2023-01-29T20:57:02.264Z,0.52
2023-01-29T20:59:29.537Z,0.54
2023-01-29T21:01:56.988Z,0.52
2023-01-29T21:04:24.139Z,0.54
2023-01-29T21:06:51.426Z,0.49
2023-01-29T21:09:18.473Z,0.51
2023-01-29T21:11:45.677Z,0.51
2023-01-29T21:14:12.898Z,0.51
2023-01-29T21:16:40.623Z,0.50
2023-01-29T21:19:07.793Z,0.48
2023-01-29T21:21:34.938Z,0.48
2023-01-29T21:24:01.980Z,0.48
2023-01-29T21:26:29.134Z,0.49
2023-01-29T21:28:56.423Z,0.34
2023-01-29T21:31:23.649Z,0.50
2023-01-29T21:33:50.814Z,0.38
2023-01-29T21:36:17.976Z,0.44
2023-01-29T21:38:45.281Z,0.49
2023-01-29T21:41:12.431Z,0.47
2023-01-29T21:43:40.052Z,0.48
2023-01-29T21:46:12.249Z,0.48
2023-01-29T21:48:40.450Z,0.48
2023-01-29T21:51:08.041Z,0.55
2023-01-29T21:53:35.414Z,0.54
2023-01-29T21:56:04.744Z,0.53
2023-01-29T21:58:32.423Z,0.48
2023-01-29T22:01:17.934Z,0.50
2023-01-29T22:03:47.491Z,0.47
2023-01-29T22:06:15.512Z,0.49
2023-01-29T22:08:42.831Z,0.50
2023-01-29T22:11:12.453Z,0.52
2023-01-29T22:13:39.669Z,0.50
2023-01-29T22:16:07.346Z,0.52
2023-01-29T22:18:34.812Z,0.50
2023-01-29T22:21:03.121Z,0.50
2023-01-29T22:23:32.052Z,0.50
2023-01-29T22:26:06.491Z,0.42
2023-01-29T22:28:33.603Z,0.51
2023-01-29T22:31:02.335Z,0.51
2023-01-29T22:33:29.531Z,0.51
2023-01-29T22:35:57.390Z,0.50
2023-01-29T22:38:24.636Z,0.49
2023-01-29T22:40:53.168Z,0.46
2023-01-29T22:43:21.132Z,0.47
2023-01-29T22:45:48.642Z,0.46
2023-01-29T22:48:15.916Z,0.40
2023-01-29T22:50:43.017Z,0.43
2023-01-29T22:53:10.236Z,0.44
2023-01-29T22:55:37.285Z,0.44
2023-01-29T22:58:04.372Z,0.46
2023-01-29T23:00:31.416Z,0.44
2023-01-29T23:02:58.509Z,0.41
2023-01-29T23:05:25.718Z,0.38
2023-01-29T23:07:52.904Z,0.42
2023-01-29T23:10:20.195Z,0.42
2023-01-29T23:12:47.358Z,0.47
2023-01-29T23:15:14.529Z,0.42
2023-01-29T23:17:41.661Z,0.44
2023-01-29T23:20:10.968Z,0.47
2023-01-29T23:22:38.511Z,0.43
2023-01-29T23:25:06.252Z,0.44
2023-01-29T23:27:33.272Z,0.44
2023-01-29T23:30:00.365Z,0.46
2023-01-29T23:32:27.484Z,0.31
2023-01-29T23:34:54.591Z,0.44
2023-01-29T23:37:21.620Z,0.44
2023-01-29T23:39:49.361Z,0.45
2023-01-29T23:42:16.413Z,0.44
2023-01-29T23:44:44.323Z,0.44
2023-01-29T23:47:11.646Z,0.46
2023-01-29T23:49:38.869Z,0.37
2023-01-29T23:52:06.331Z,0.44
2023-01-29T23:54:33.436Z,0.47
2023-01-29T23:57:00.445Z,0.48
2023-01-29T23:59:29.081Z,0.47
